createdAt,value
2023-03-02T00:04:36.098Z,6.60
2023-03-02T00:09:39.014Z,4.00
2023-03-02T00:14:41.764Z,5.50
2023-03-02T00:19:44.646Z,6.30
2023-03-02T00:24:46.606Z,10.20
2023-03-02T00:29:48.546Z,9.60
2023-03-02T00:34:50.572Z,11.90
2023-03-02T00:39:53.207Z,9.50
2023-03-02T00:44:55.071Z,9.70
2023-03-02T00:49:57.053Z,6.00
2023-03-02T00:54:59.269Z,10.60
2023-03-02T01:00:01.313Z,11.70
2023-03-02T01:05:03.842Z,23.80
2023-03-02T01:10:06.570Z,23.00
2023-03-02T01:15:10.839Z,27.50
2023-03-02T01:20:13.631Z,17.60
2023-03-02T01:25:15.712Z,24.50
2023-03-02T01:30:17.678Z,20.50
2023-03-02T01:35:19.698Z,11.70
2023-03-02T01:40:21.999Z,9.30
2023-03-02T01:45:53.539Z,7.70
2023-03-02T01:50:58.118Z,6.20
2023-03-02T01:56:02.117Z,10.50
2023-03-02T02:01:04.733Z,10.50
2023-03-02T02:06:24.295Z,7.10
2023-03-02T02:11:26.472Z,6.60
2023-03-02T02:16:34.569Z,6.20
2023-03-02T02:21:36.979Z,5.30
2023-03-02T02:26:47.062Z,6.40
2023-03-02T02:32:00.545Z,6.60
2023-03-02T02:37:27.696Z,7.50
2023-03-02T02:42:32.976Z,7.20
2023-03-02T02:47:35.571Z,8.30
2023-03-02T02:52:41.204Z,8.70
2023-03-02T02:57:43.249Z,8.40
2023-03-02T03:02:51.173Z,12.10
2023-03-02T03:08:07.405Z,16.50
2023-03-02T03:13:11.097Z,7.10
2023-03-02T03:18:13.035Z,7.40
2023-03-02T03:23:15.062Z,9.10
2023-03-02T03:28:17.837Z,6.50
2023-03-02T03:33:19.732Z,6.30
2023-03-02T03:38:21.847Z,6.20
2023-03-02T03:43:23.918Z,4.20
2023-03-02T03:48:25.994Z,3.80
2023-03-02T03:53:28.462Z,5.20
2023-03-02T03:58:32.041Z,5.30
2023-03-02T04:03:34.048Z,4.70
2023-03-02T04:08:36.034Z,5.70
2023-03-02T04:13:38.478Z,5.20
2023-03-02T04:18:40.564Z,5.80
2023-03-02T04:23:42.578Z,6.70
2023-03-02T04:28:44.819Z,5.30
2023-03-02T04:33:46.849Z,7.50
2023-03-02T04:38:49.567Z,9.90
2023-03-02T04:43:52.554Z,9.90
2023-03-02T04:48:55.099Z,7.50
2023-03-02T04:54:00.846Z,7.60
2023-03-02T04:59:03.155Z,6.60
2023-03-02T05:04:05.242Z,9.00
2023-03-02T05:09:07.739Z,7.20
2023-03-02T05:14:12.354Z,7.30
2023-03-02T05:19:14.660Z,8.30
2023-03-02T05:24:16.671Z,10.20
2023-03-02T05:29:18.839Z,9.20
2023-03-02T05:34:20.855Z,10.10
2023-03-02T05:39:22.818Z,9.00
2023-03-02T05:44:24.962Z,12.40
2023-03-02T05:49:27.460Z,10.10
2023-03-02T05:54:29.353Z,10.40
2023-03-02T05:59:31.278Z,9.00
2023-03-02T06:04:33.392Z,9.50
2023-03-02T06:09:36.095Z,10.00
2023-03-02T06:14:39.209Z,9.70
2023-03-02T06:19:41.245Z,9.30
2023-03-02T06:24:43.841Z,10.30
2023-03-02T06:29:45.943Z,6.40
2023-03-02T06:34:47.945Z,10.30
2023-03-02T06:39:50.079Z,9.20
2023-03-02T06:44:54.393Z,14.00
2023-03-02T06:49:56.482Z,7.70
2023-03-02T06:54:58.800Z,12.80
2023-03-02T07:00:09.469Z,12.90
2023-03-02T07:05:14.145Z,12.30
2023-03-02T07:10:16.636Z,12.30
2023-03-02T07:15:19.517Z,13.10
2023-03-02T07:20:22.369Z,12.10
2023-03-02T07:25:24.526Z,14.60
2023-03-02T07:30:26.726Z,13.10
2023-03-02T07:35:28.772Z,13.70
2023-03-02T07:40:31.131Z,15.90
2023-03-02T07:45:33.188Z,12.00
2023-03-02T07:50:59.698Z,15.20
2023-03-02T07:56:26.955Z,12.90
2023-03-02T08:01:31.986Z,18.30
2023-03-02T08:06:44.063Z,13.40
2023-03-02T08:12:21.847Z,14.00
2023-03-02T08:17:29.823Z,18.80
2023-03-02T08:22:38.318Z,13.00
2023-03-02T08:28:28.955Z,13.80
2023-03-02T08:33:43.418Z,13.70
2023-03-02T08:38:50.480Z,14.20
2023-03-02T08:43:56.918Z,16.40
2023-03-02T08:49:02.241Z,15.40
2023-03-02T08:54:04.383Z,14.90
2023-03-02T08:59:11.365Z,13.60
2023-03-02T09:04:13.366Z,18.70
2023-03-02T09:09:24.525Z,27.10
2023-03-02T09:14:41.314Z,16.10
2023-03-02T09:19:44.669Z,10.50
2023-03-02T09:24:48.221Z,12.60
2023-03-02T09:30:18.341Z,13.00
2023-03-02T09:35:32.051Z,11.50
2023-03-02T09:40:44.905Z,10.80
2023-03-02T09:46:02.261Z,9.10
2023-03-02T09:51:13.085Z,9.60
2023-03-02T09:56:21.650Z,13.70
2023-03-02T10:01:42.583Z,10.30
2023-03-02T10:06:45.796Z,9.80
2023-03-02T10:12:28.360Z,9.60
2023-03-02T10:20:45.426Z,8.60
2023-03-02T10:25:59.446Z,9.60
2023-03-02T10:31:31.752Z,9.80
2023-03-02T10:36:42.041Z,9.90
2023-03-02T10:41:56.732Z,11.10
2023-03-02T10:47:05.521Z,8.40
2023-03-02T10:52:31.941Z,9.50
2023-03-02T10:57:42.260Z,10.60
2023-03-02T11:03:02.878Z,9.60
2023-03-02T11:08:14.041Z,8.10
2023-03-02T11:13:29.553Z,7.50
2023-03-02T11:18:48.292Z,8.40
2023-03-02T11:24:24.234Z,10.50
2023-03-02T11:29:51.322Z,9.20
2023-03-02T11:35:22.809Z,7.70
2023-03-02T11:40:47.209Z,7.40
2023-03-02T11:46:10.818Z,8.30
2023-03-02T11:51:33.249Z,7.60
2023-03-02T11:56:40.374Z,8.80
2023-03-02T12:01:54.543Z,6.70
2023-03-02T12:07:20.949Z,7.60
2023-03-02T12:12:37.247Z,8.80
2023-03-02T12:17:45.379Z,7.70
2023-03-02T12:23:15.173Z,8.40
2023-03-02T12:28:49.014Z,8.30
2023-03-02T12:33:59.796Z,9.10
2023-03-02T12:39:17.969Z,8.00
2023-03-02T12:44:55.373Z,9.40
2023-03-02T12:50:28.491Z,8.90
2023-03-02T12:55:33.057Z,7.90
2023-03-02T13:00:39.688Z,9.10
2023-03-02T13:05:43.014Z,8.40
2023-03-02T13:10:50.526Z,7.40
2023-03-02T13:15:55.357Z,9.00
2023-03-02T13:21:00.632Z,10.00
2023-03-02T13:26:06.495Z,10.00
2023-03-02T13:31:26.279Z,11.00
2023-03-02T13:36:41.797Z,9.60
2023-03-02T13:42:00.477Z,8.80
2023-03-02T13:47:04.486Z,9.20
2023-03-02T13:52:28.408Z,10.90
2023-03-02T13:57:33.872Z,12.00
2023-03-02T14:02:37.264Z,11.50
2023-03-02T14:07:40.541Z,12.00
2023-03-02T14:12:54.288Z,14.40
2023-03-02T14:18:00.878Z,10.80
2023-03-02T14:23:06.963Z,10.30
2023-03-02T14:28:36.683Z,9.60
2023-03-02T14:33:44.417Z,10.20
2023-03-02T14:38:52.024Z,6.80
2023-03-02T14:43:56.664Z,6.80
2023-03-02T14:49:00.775Z,7.80
2023-03-02T14:54:09.488Z,5.20
2023-03-02T14:59:15.432Z,8.00
2023-03-02T15:04:22.373Z,7.50
2023-03-02T15:09:26.013Z,7.30
2023-03-02T15:14:29.409Z,6.00
2023-03-02T15:19:33.095Z,6.10
2023-03-02T15:24:36.858Z,6.00
2023-03-02T15:29:45.726Z,7.30
2023-03-02T15:34:49.266Z,10.00
2023-03-02T15:39:59.234Z,9.50
2023-03-02T15:45:02.889Z,18.60
2023-03-02T15:50:06.988Z,14.20
2023-03-02T15:55:11.917Z,18.00
2023-03-02T16:00:23.139Z,11.60
2023-03-02T16:05:27.405Z,10.20
2023-03-02T16:10:34.414Z,13.40
2023-03-02T16:15:42.307Z,12.80
2023-03-02T16:20:48.379Z,12.30
2023-03-02T16:25:53.699Z,11.50
2023-03-02T16:31:07.645Z,12.30
2023-03-02T16:36:12.574Z,16.00
2023-03-02T16:41:23.691Z,24.80
2023-03-02T16:46:30.719Z,31.90
2023-03-02T16:51:34.271Z,26.50
2023-03-02T16:56:45.137Z,27.50
2023-03-02T17:01:48.826Z,27.80
2023-03-02T17:07:00.403Z,33.80
2023-03-02T17:12:05.168Z,36.60
2023-03-02T17:17:10.578Z,35.70
2023-03-02T17:22:14.427Z,34.30
2023-03-02T17:27:24.962Z,36.90
2023-03-02T17:32:29.344Z,36.80
2023-03-02T17:37:33.516Z,41.30
2023-03-02T17:42:39.212Z,47.00
2023-03-02T17:47:43.257Z,50.20
2023-03-02T17:52:46.696Z,62.10
2023-03-02T17:57:50.251Z,77.80
2023-03-02T18:02:54.259Z,80.60
2023-03-02T18:07:58.458Z,74.30
2023-03-02T18:13:02.140Z,79.40
2023-03-02T18:18:06.225Z,58.20
2023-03-02T18:23:10.565Z,48.60
2023-03-02T18:28:14.205Z,42.50
2023-03-02T18:33:17.885Z,51.60
2023-03-02T18:38:21.419Z,44.00
2023-03-02T18:43:24.811Z,42.80
2023-03-02T18:48:29.354Z,39.10
2023-03-02T18:53:33.264Z,44.70
2023-03-02T18:58:40.397Z,42.60
2023-03-02T19:03:46.218Z,45.80
2023-03-02T19:08:49.863Z,73.80
2023-03-02T19:13:53.298Z,73.50
2023-03-02T19:18:56.641Z,92.10
2023-03-02T19:24:02.203Z,91.50
2023-03-02T19:29:05.799Z,83.60
2023-03-02T19:34:09.312Z,84.10
2023-03-02T19:39:12.799Z,84.20
2023-03-02T19:44:16.854Z,63.90
2023-03-02T19:49:20.323Z,76.40
2023-03-02T19:54:23.810Z,70.20
2023-03-02T19:59:27.615Z,68.40
2023-03-02T20:04:31.146Z,70.80
2023-03-02T20:09:34.694Z,67.90
2023-03-02T20:14:39.032Z,65.50
2023-03-02T20:19:44.439Z,72.90
2023-03-02T20:24:47.904Z,68.60
2023-03-02T20:29:51.208Z,51.90
2023-03-02T20:34:54.712Z,50.90
2023-03-02T20:39:58.364Z,61.70
2023-03-02T20:45:03.885Z,76.30
2023-03-02T20:50:11.265Z,75.30
2023-03-02T20:55:19.220Z,66.10
2023-03-02T21:00:27.980Z,78.20
2023-03-02T21:05:35.266Z,63.10
2023-03-02T21:10:39.347Z,52.90
2023-03-02T21:15:43.340Z,68.20
2023-03-02T21:20:46.985Z,56.70
2023-03-02T21:25:51.112Z,49.40
2023-03-02T21:30:54.408Z,44.50
2023-03-02T21:35:58.306Z,47.70
2023-03-02T21:41:01.676Z,77.00
2023-03-02T21:46:05.902Z,76.00
2023-03-02T21:51:11.742Z,64.10
2023-03-02T21:56:23.166Z,60.50
2023-03-02T22:01:27.337Z,69.40
2023-03-02T22:06:32.992Z,71.20
2023-03-02T22:11:42.312Z,64.30
2023-03-02T22:16:48.569Z,68.30
2023-03-02T22:21:53.140Z,57.40
2023-03-02T22:26:59.472Z,48.70
2023-03-02T22:32:23.232Z,50.90
2023-03-02T22:37:33.205Z,56.80
2023-03-02T22:42:36.490Z,89.20
2023-03-02T22:47:39.839Z,97.30
2023-03-02T22:52:46.035Z,87.30
2023-03-02T22:57:49.266Z,94.90
2023-03-02T23:02:56.599Z,111.00
2023-03-02T23:08:17.780Z,81.00
2023-03-02T23:13:27.268Z,81.00
2023-03-02T23:18:33.515Z,83.80
2023-03-02T23:23:36.913Z,79.70
2023-03-02T23:28:40.241Z,80.30
2023-03-02T23:33:43.509Z,73.60
2023-03-02T23:38:48.508Z,73.20
2023-03-02T23:43:51.829Z,59.30
2023-03-02T23:48:56.772Z,70.30
2023-03-02T23:54:02.940Z,53.50
2023-03-02T23:59:07.682Z,46.60
